createdAt,value
2019-01-11T00:00:47.648Z,194.60
2019-01-11T00:07:18.867Z,188.95
2019-01-11T00:13:50.058Z,189.20
2019-01-11T00:20:21.339Z,189.17
2019-01-11T00:26:52.829Z,190.00
2019-01-11T00:33:23.493Z,192.17
2019-01-11T00:39:54.362Z,188.30
2019-01-11T00:43:19.160Z,197.00
2019-01-11T00:49:50.467Z,187.90
2019-01-11T00:53:14.975Z,186.62
2019-01-11T00:59:45.776Z,187.75
2019-01-11T01:06:16.810Z,193.30
2019-01-11T01:08:46.958Z,184.57
2019-01-11T01:12:11.421Z,186.12
2019-01-11T01:18:42.010Z,184.40
2019-01-11T01:25:14.016Z,185.57
2019-01-11T01:31:45.091Z,183.70
2019-01-11T01:38:15.586Z,187.65
2019-01-11T01:44:46.609Z,185.70
2019-01-11T01:51:17.515Z,178.30
2019-01-11T01:54:41.857Z,181.52
2019-01-11T02:01:12.565Z,185.20
2019-01-11T02:04:37.338Z,175.05
2019-01-11T02:11:07.605Z,178.80
2019-01-11T02:17:38.590Z,177.43
2019-01-11T02:24:09.768Z,173.57
2019-01-11T02:30:40.985Z,173.50
2019-01-11T02:34:05.709Z,175.60
2019-01-11T02:40:36.700Z,172.05
2019-01-11T02:47:07.376Z,175.87
2019-01-11T02:53:38.247Z,176.32
2019-01-11T02:57:02.632Z,178.10
2019-01-11T03:03:33.742Z,175.23
2019-01-11T03:10:06.940Z,178.18
2019-01-11T03:12:37.001Z,172.28
2019-01-11T03:19:07.548Z,173.17
2019-01-11T03:25:38.416Z,173.00
2019-01-11T03:29:03.211Z,175.70
2019-01-11T03:35:33.313Z,168.93
2019-01-11T03:38:58.106Z,169.00
2019-01-11T03:45:30.077Z,174.02
2019-01-11T03:52:01.337Z,172.43
2019-01-11T03:55:25.588Z,169.82
2019-01-11T04:01:58.077Z,174.70
2019-01-11T04:05:22.456Z,169.77
2019-01-11T04:11:53.272Z,176.22
2019-01-11T04:18:26.172Z,171.82
2019-01-11T04:25:09.835Z,170.95
2019-01-11T04:27:49.892Z,162.12
2019-01-11T04:34:21.399Z,174.80
2019-01-11T04:40:52.691Z,170.43
2019-01-11T04:47:24.334Z,171.68
2019-01-11T04:50:49.897Z,174.18
2019-01-11T04:57:20.725Z,173.17
2019-01-11T05:00:45.094Z,170.97
2019-01-11T05:07:16.026Z,175.20
2019-01-11T05:13:47.373Z,169.87
2019-01-11T05:17:11.823Z,169.20
2019-01-11T05:23:42.397Z,170.17
2019-01-11T05:30:16.027Z,168.10
2019-01-11T05:36:46.654Z,171.07
2019-01-11T05:43:17.656Z,165.43
2019-01-11T05:46:42.154Z,170.68
2019-01-11T05:53:13.529Z,167.55
2019-01-11T05:56:38.149Z,165.37
2019-01-11T06:03:09.537Z,165.52
2019-01-11T06:06:34.159Z,162.77
2019-01-11T06:13:04.810Z,165.68
2019-01-11T06:16:29.209Z,160.10
2019-01-11T06:23:00.330Z,156.90
2019-01-11T06:29:30.570Z,158.20
2019-01-11T06:32:00.393Z,157.62
2019-01-11T06:34:57.417Z,159.05
2019-01-11T06:41:28.975Z,159.00
2019-01-11T06:47:59.190Z,163.03
2019-01-11T06:54:29.129Z,155.27
2019-01-11T06:57:53.160Z,156.67
2019-01-11T07:04:23.098Z,158.10
2019-01-11T07:10:53.226Z,159.95
2019-01-11T07:14:00.630Z,160.00
2019-01-11T07:20:31.822Z,159.87
2019-01-11T07:23:56.453Z,161.03
2019-01-11T07:30:28.839Z,162.07
2019-01-11T07:32:58.813Z,164.65
2019-01-11T07:36:23.086Z,160.20
2019-01-11T07:42:54.017Z,165.73
2019-01-11T07:46:18.278Z,170.10
2019-01-11T07:52:48.671Z,174.18
2019-01-11T07:59:20.991Z,174.50
2019-01-11T08:05:51.771Z,184.32
2019-01-11T08:09:15.930Z,187.43
2019-01-11T08:15:48.925Z,194.40
2019-01-11T08:19:13.016Z,195.87
2019-01-11T08:25:44.050Z,200.60
2019-01-11T08:32:15.051Z,203.70
2019-01-11T08:38:46.276Z,200.82
2019-01-11T08:45:16.632Z,205.47
2019-01-11T08:51:47.490Z,192.85
2019-01-11T08:58:18.383Z,194.53
2019-01-11T09:01:42.910Z,183.78
2019-01-11T09:08:13.956Z,196.37
2019-01-11T09:14:48.212Z,198.62
2019-01-11T09:18:12.842Z,203.52
2019-01-11T09:24:43.401Z,196.75
2019-01-11T09:31:14.658Z,200.93
2019-01-11T09:33:45.905Z,195.57
2019-01-11T09:40:16.655Z,204.23
2019-01-11T09:43:40.876Z,210.75
2019-01-11T09:50:11.772Z,220.00
2019-01-11T09:56:42.434Z,214.95
2019-01-11T10:03:13.630Z,214.77
2019-01-11T10:09:44.605Z,221.62
2019-01-11T10:12:51.091Z,217.25
2019-01-11T10:19:22.517Z,216.50
2019-01-11T10:22:46.844Z,230.75
2019-01-11T10:29:17.514Z,231.02
2019-01-11T10:31:50.071Z,245.50
2019-01-11T10:34:19.965Z,248.90
2019-01-11T10:40:50.833Z,254.82
2019-01-11T10:44:15.346Z,251.27
2019-01-11T10:50:45.932Z,263.87
2019-01-11T10:54:10.351Z,264.32
2019-01-11T11:00:41.344Z,283.75
2019-01-11T11:04:06.007Z,281.70
2019-01-11T11:10:36.771Z,282.05
2019-01-11T11:17:07.636Z,294.10
2019-01-11T11:20:32.207Z,279.87
2019-01-11T11:27:03.463Z,286.50
2019-01-11T11:30:27.796Z,289.42
2019-01-11T11:37:00.454Z,298.87
2019-01-11T11:43:31.792Z,287.72
2019-01-11T11:50:02.565Z,290.20
2019-01-11T11:56:35.799Z,286.80
2019-01-11T12:00:00.415Z,282.00
2019-01-11T12:06:31.411Z,296.73
2019-01-11T12:13:02.349Z,293.10
2019-01-11T12:16:26.681Z,293.42
2019-01-11T12:22:57.573Z,297.53
2019-01-11T12:26:22.450Z,306.80
2019-01-11T12:32:52.841Z,311.18
2019-01-11T12:35:46.168Z,306.05
2019-01-11T12:38:16.135Z,304.40
2019-01-11T12:44:46.358Z,299.88
2019-01-11T12:51:16.029Z,304.53
2019-01-11T12:57:46.089Z,313.23
2019-01-11T13:01:10.338Z,312.93
2019-01-11T13:07:40.427Z,329.07
2019-01-11T13:11:04.629Z,330.50
2019-01-11T13:17:35.048Z,339.50
2019-01-11T13:20:59.336Z,337.63
2019-01-11T13:27:30.422Z,334.52
2019-01-11T13:30:54.833Z,338.47
2019-01-11T13:37:25.801Z,327.55
2019-01-11T13:43:56.114Z,298.98
2019-01-11T13:47:20.882Z,288.27
2019-01-11T13:53:51.150Z,286.82
2019-01-11T13:57:15.761Z,287.57
2019-01-11T14:03:46.394Z,290.57
2019-01-11T14:07:10.660Z,294.20
2019-01-11T14:13:41.645Z,303.77
2019-01-11T14:17:06.106Z,309.60
2019-01-11T14:23:37.322Z,310.63
2019-01-11T14:26:51.274Z,305.20
2019-01-11T14:33:22.081Z,300.70
2019-01-11T14:36:46.216Z,291.47
2019-01-11T14:39:16.061Z,296.60
2019-01-11T14:45:46.014Z,286.47
2019-01-11T14:52:20.325Z,281.87
2019-01-11T14:58:48.643Z,273.60
2019-01-11T15:02:12.850Z,275.50
2019-01-11T15:08:43.495Z,270.12
2019-01-11T15:12:07.616Z,273.35
2019-01-11T15:18:38.501Z,262.65
2019-01-11T15:22:02.979Z,261.62
2019-01-11T15:28:34.152Z,258.07
2019-01-11T15:31:58.602Z,252.60
2019-01-11T15:38:29.825Z,247.00
2019-01-11T15:45:00.553Z,240.25
2019-01-11T15:51:31.411Z,233.90
2019-01-11T15:58:02.255Z,236.22
2019-01-11T16:04:32.936Z,234.80
2019-01-11T16:07:57.648Z,234.83
2019-01-11T16:15:04.956Z,221.97
2019-01-11T16:18:29.660Z,224.52
2019-01-11T16:24:59.742Z,226.32
2019-01-11T16:28:24.190Z,227.22
2019-01-11T16:34:54.459Z,223.10
2019-01-11T16:38:18.734Z,223.65
2019-01-11T16:40:48.764Z,218.85
2019-01-11T16:47:18.878Z,218.57
2019-01-11T16:53:49.049Z,217.60
2019-01-11T17:00:20.628Z,222.50
2019-01-11T17:06:50.829Z,213.68
2019-01-11T17:13:21.070Z,211.60
2019-01-11T17:19:52.174Z,217.60
2019-01-11T17:23:16.703Z,214.63
2019-01-11T17:29:47.431Z,213.72
2019-01-11T17:33:11.861Z,216.75
2019-01-11T17:39:42.655Z,214.48
2019-01-11T17:46:13.754Z,215.72
2019-01-11T17:49:38.392Z,215.00
2019-01-11T17:56:09.381Z,215.57
2019-01-11T17:59:33.739Z,215.07
2019-01-11T18:06:04.518Z,212.17
2019-01-11T18:12:35.131Z,205.40
2019-01-11T18:15:59.703Z,204.63
2019-01-11T18:22:33.066Z,216.53
2019-01-11T18:29:03.901Z,206.20
2019-01-11T18:35:34.661Z,207.65
2019-01-11T18:42:05.731Z,211.37
2019-01-11T18:48:36.778Z,213.18
2019-01-11T18:55:08.107Z,207.05
2019-01-11T19:01:39.260Z,210.68
2019-01-11T19:08:10.349Z,206.13
2019-01-11T19:14:41.129Z,197.40
2019-01-11T19:21:12.003Z,200.97
2019-01-11T19:27:43.027Z,199.65
2019-01-11T19:34:14.068Z,196.20
2019-01-11T19:37:38.447Z,192.25
2019-01-11T19:44:09.464Z,203.35
2019-01-11T19:50:40.398Z,203.22
2019-01-11T19:54:05.046Z,205.22
2019-01-11T20:00:35.948Z,204.67
2019-01-11T20:04:00.644Z,203.57
2019-01-11T20:10:31.854Z,202.43
2019-01-11T20:13:56.182Z,201.15
2019-01-11T20:20:27.879Z,204.75
2019-01-11T20:26:58.879Z,206.63
2019-01-11T20:30:24.530Z,203.37
2019-01-11T20:37:04.188Z,207.00
2019-01-11T20:43:35.304Z,202.75
2019-01-11T20:46:05.410Z,198.00
2019-01-11T20:52:36.045Z,199.10
2019-01-11T20:59:06.962Z,203.45
2019-01-11T21:05:38.015Z,197.98
2019-01-11T21:09:02.584Z,201.65
2019-01-11T21:15:33.009Z,206.50
2019-01-11T21:18:57.441Z,203.90
2019-01-11T21:25:28.581Z,206.35
2019-01-11T21:31:59.070Z,201.92
2019-01-11T21:35:23.602Z,199.70
2019-01-11T21:41:54.734Z,192.65
2019-01-11T21:48:25.671Z,195.62
2019-01-11T21:54:56.761Z,196.78
2019-01-11T21:58:21.685Z,198.23
2019-01-11T22:04:52.115Z,199.10
2019-01-11T22:08:16.661Z,195.97
2019-01-11T22:14:47.677Z,194.05
2019-01-11T22:21:18.794Z,198.05
2019-01-11T22:24:43.100Z,199.47
2019-01-11T22:31:13.941Z,196.22
2019-01-11T22:34:38.427Z,188.32
2019-01-11T22:41:08.890Z,188.20
2019-01-11T22:47:40.736Z,194.00
2019-01-11T22:50:12.871Z,192.07
2019-01-11T22:56:43.128Z,194.25
2019-01-11T23:03:22.848Z,197.72
2019-01-11T23:06:47.186Z,192.28
2019-01-11T23:13:18.441Z,189.60
2019-01-11T23:19:49.389Z,197.15
2019-01-11T23:23:13.745Z,196.03
2019-01-11T23:29:44.566Z,198.85
2019-01-11T23:36:15.375Z,195.97
2019-01-11T23:38:56.047Z,192.07
2019-01-11T23:45:26.491Z,195.45
2019-01-11T23:51:56.677Z,204.35
2019-01-11T23:58:26.755Z,200.90
